^^
Datos históricos de la estación: Murcia-Puente Tocinos
Diario Informe para Agosto 1, 2019 Unidades:  Ingés    Métrico   Ambas
Diario Semanal Mensual Anual
  Máxima: Mínima: Promedio:
Temperatura: 92.5 °F 72.7 °F 82.4 °F
Punto de rocio: 69.8 °F 54.7 °F 62.6 °F
Humedad: 78% 39% 52%
Velocidad viento: 12.3mph 0mph 6.2mph
Racha viento: 22mph - -
Viento- - Este
Presión: 30 in 29.9 in -
Precipitación: 0 in    
 
 
Tabla de datos para Agosto 1, 2019
Hora Temperatura Punto de rocio Presión Viento Velocidad viento Racha viento Humedad Intensidad lluvia(por hora) Nubes
02:00 79 °F 61 °F 30 in SSO 2 mph 5 mph 54% 0 in
02:05 78.6 °F 61.2 °F 30 in SE 1.8 mph 2.3 mph 55% 0 in
02:10 78.6 °F 61.2 °F 30 in SE 2 mph 2 mph 55% 0 in
02:15 78.6 °F 61.2 °F 30 in SE 2 mph 1 mph 55% 0 in
02:20 78.4 °F 61 °F 30 in Calm     55% 0 in
02:25 78.4 °F 61.3 °F 30 in Calm     56% 0 in
02:30 78.3 °F 61.3 °F 30 in Calm     56% 0 in
02:35 78.1 °F 61.2 °F 30 in Calm   2.3 mph 56% 0 in
02:40 77.7 °F 60.8 °F 30 in SE 1.8 mph 2.3 mph 56% 0 in
02:45 77.5 °F 61.2 °F 30 in SE 2 mph 1 mph 57% 0 in
02:50 77.5 °F 61.2 °F 30 in Calm   3 mph 57% 0 in
02:55 77.5 °F 61.2 °F 30 in Calm   3 mph 57% 0 in
03:00 77.4 °F 61 °F 30 in Calm   3 mph 57% 0 in
03:05 77.2 °F 60.8 °F 30 in Calm     57% 0 in
03:10 77.2 °F 59.7 °F 30 in Sur 1 mph 5 mph 55% 0 in
03:15 77.4 °F 57.7 °F 30 in SSO 1.4 mph 6.4 mph 51% 0 in
03:20 77.5 °F 57.4 °F 30 in SO 4.3 mph 6.4 mph 50% 0 in
03:25 77.5 °F 57.4 °F 30 in SSO 5 mph 7 mph 50% 0 in
03:30 77.5 °F 57.4 °F 30 in SSO 4.3 mph 6.2 mph 50% 0 in
03:35 77.4 °F 57.4 °F 30 in SO 4.3 mph 5.8 mph 50% 0 in
03:40 77.4 °F 57.7 °F 30 in OSO 3.6 mph 4.6 mph 51% 0 in
03:45 77.4 °F 57.7 °F 30 in SO 3.6 mph 4.6 mph 51% 0 in
03:50 77.4 °F 57.7 °F 29.9 in OSO 2.9 mph 3.5 mph 51% 0 in
03:55 77.4 °F 57.7 °F 29.9 in OSO 2.9 mph 2.3 mph 51% 0 in
04:00 77.4 °F 57.7 °F 29.9 in OSO 2 mph 4 mph 51% 0 in
04:05 77.4 °F 57.7 °F 29.9 in OSO 2 mph 4 mph 51% 0 in
04:10 77.4 °F 57.7 °F 29.9 in Sur 2.4 mph 4.6 mph 51% 0 in
04:15 77.4 °F 57.7 °F 29.9 in Sur 2 mph 6 mph 51% 0 in
04:20 77.2 °F 57.7 °F 29.9 in Sur 3 mph 6 mph 51% 0 in
04:25 76.8 °F 57.4 °F 29.9 in Sur 3 mph 5 mph 51% 0 in
04:30 76.8 °F 57.4 °F 29.9 in Sur 3 mph 6 mph 51% 0 in
04:35 76.6 °F 57.2 °F 29.9 in Sur 3 mph 6 mph 51% 0 in
04:40 76.6 °F 57.2 °F 29.9 in SSO 4 mph 4.7 mph 51% 0 in
04:45 76.6 °F 57 °F 29.9 in Sur 5 mph 6 mph 51% 0 in
04:50 76.5 °F 57.6 °F 29.9 in Sur 3.6 mph 4.6 mph 52% 0 in
04:55 76.5 °F 57.6 °F 29.9 in SSE 3 mph 5 mph 52% 0 in
05:00 76.5 °F 57.6 °F 29.9 in SSE 2 mph 5 mph 52% 0 in
05:05 76.3 °F 57.4 °F 29.9 in SSE 2 mph 5 mph 52% 0 in
05:10 75.6 °F 57.2 °F 29.9 in SSE 3.1 mph 5.8 mph 53% 0 in
05:15 75 °F 57.2 °F 29.9 in SSE 3.1 mph 4.6 mph 54% 0 in
05:20 74.8 °F 57 °F 29.9 in Sur 3 mph 5 mph 54% 0 in
05:25 74.8 °F 57 °F 29.9 in SSO 3 mph 5 mph 54% 0 in
05:30 75 °F 56.7 °F 29.9 in OSO 3.1 mph 4.6 mph 53% 0 in
05:35 75.4 °F 56.5 °F 29.9 in OSO 3 mph 5 mph 52% 0 in
05:40 75.4 °F 56.5 °F 29.9 in Oeste 2 mph 3 mph 52% 0 in
05:45 75.4 °F 56.5 °F 29.9 in ONO 2 mph 5 mph 52% 0 in
05:50 75.2 °F 56.5 °F 29.9 in ONO 1.8 mph 4.6 mph 52% 0 in
05:55 75 °F 56.1 °F 29.9 in Oeste 2 mph 6 mph 52% 0 in
06:00 74.8 °F 55.9 °F 29.9 in OSO 3 mph 7 mph 52% 0 in
06:05 74.8 °F 55.9 °F 29.9 in OSO 3 mph 5 mph 52% 0 in
06:10 75 °F 56.1 °F 29.9 in SO 2 mph 5 mph 52% 0 in
06:15 75.2 °F 55.8 °F 29.9 in SO 2 mph 5 mph 51% 0 in
06:20 75.4 °F 57 °F 29.9 in Sur 2 mph 5 mph 53% 0 in
06:25 74.8 °F 56.7 °F 29.9 in Este 2.9 mph 4.3 mph 53% 0 in
06:30 73.9 °F 56.8 °F 29.9 in ESE 2.9 mph 5.8 mph 55% 0 in
06:35 73.2 °F 56.7 °F 29.9 in ESE 2 mph 6 mph 56% 0 in
06:40 73 °F 56.5 °F 29.9 in SE 3 mph 7 mph 56% 0 in
06:45 72.7 °F 56.7 °F 29.9 in Sur 3.1 mph 4.7 mph 57% 0 in
06:50 72.7 °F 56.7 °F 29.9 in Sur 5 mph 5 mph 57% 0 in
06:55 72.7 °F 56.1 °F 29.9 in Sur 5 mph 5 mph 56% 0 in
07:00 73 °F 56.5 °F 29.9 in Sur 2 mph 5 mph 56% 0 in
07:05 73.2 °F 56.1 °F 29.9 in SSE 2 mph 6 mph 55% 0 in
07:10 73.6 °F 55.9 °F 29.9 in Sur 3.1 mph 4.6 mph 54% 0 in
07:15 73.6 °F 55.4 °F 29.9 in Sur 3 mph 6 mph 53% 0 in
07:20 73.8 °F 55 °F 29.9 in Sur 4 mph 4.6 mph 52% 0 in
07:25 73.8 °F 55 °F 29.9 in Sur 5 mph 6 mph 52% 0 in
07:30 73.9 °F 55.2 °F 29.9 in Sur 3 mph 7 mph 52% 0 in
07:35 73.9 °F 55.2 °F 29.9 in SSO 3 mph 6 mph 52% 0 in
07:40 74.1 °F 54.9 °F 29.9 in SSO 3.6 mph 4.7 mph 51% 0 in
07:45 74.5 °F 55.2 °F 29.9 in SSO 3 mph 6 mph 51% 0 in
07:50 74.7 °F 54.9 °F 29.9 in SSO 3.6 mph 4.6 mph 50% 0 in
07:55 74.8 °F 54.9 °F 29.9 in SSO 3 mph 5 mph 50% 0 in
08:00 75 °F 55 °F 29.9 in SSO 3 mph 5 mph 50% 0 in
08:05 75.2 °F 54.7 °F 29.9 in Sur 3 mph 5 mph 49% 0 in
08:10 75.4 °F 55 °F 29.9 in SSO 2 mph 5 mph 49% 0 in
08:15 75.6 °F 55 °F 29.9 in SSO 2.9 mph 4.6 mph 49% 0 in
08:20 75.9 °F 54.9 °F 29.9 in SSO 3 mph 6 mph 48% 0 in
08:25 76.1 °F 55 °F 29.9 in SSO 3 mph 5 mph 48% 0 in
08:30 76.5 °F 55.2 °F 29.9 in Sur 2.9 mph 2.3 mph 48% 0 in
08:35 76.8 °F 55.6 °F 29.9 in Sur 2 mph 3 mph 48% 0 in
08:40 77.5 °F 55.8 °F 29.9 in SSE 2 mph 3 mph 47% 0 in
08:45 78.1 °F 56.1 °F 29.9 in OSO 1.8 mph 2.3 mph 47% 0 in
08:50 78.8 °F 56.8 °F 29.9 in North 1.8 mph 3.5 mph 47% 0 in
08:55 79.2 °F 57 °F 29.9 in North 2 mph 5 mph 47% 0 in
09:00 79 °F 57 °F 29.9 in NNE 2 mph 5 mph 47% 0 in
09:05 79.2 °F 57.2 °F 29.9 in NNE 2.9 mph 3.6 mph 47% 0 in
09:10 79.2 °F 56.7 °F 29.9 in NNO 2.9 mph 4.6 mph 46% 0 in
09:15 79.3 °F 56.8 °F 29.9 in NNE 2 mph 6 mph 46% 0 in
09:20 79.3 °F 56.7 °F 29.9 in NE 3 mph 7 mph 46% 0 in
09:25 79 °F 57.6 °F 29.9 in NE 3 mph 8 mph 48% 0 in
09:30 79 °F 57 °F 29.9 in NE 5 mph 7 mph 47% 0 in
09:35 79.3 °F 57.9 °F 29.9 in ENE 5.2 mph 4.6 mph 48% 0 in
09:40 79.7 °F 57 °F 29.9 in NE 4.7 mph 6.9 mph 46% 0 in
09:45 80.1 °F 56.8 °F 29.9 in NE 5 mph 7 mph 45% 0 in
09:50 80.4 °F 57 °F 30 in NNE 4.3 mph 6.9 mph 45% 0 in
09:55 80.8 °F 57.4 °F 30 in NE 5 mph 7 mph 45% 0 in
10:00 81.1 °F 57.7 °F 30 in NNE 5 mph 7 mph 45% 0 in
10:05 81.3 °F 57.9 °F 29.9 in NNE 5 mph 7 mph 45% 0 in
10:10 81.7 °F 58.3 °F 29.9 in NNE 3.6 mph 8.1 mph 45% 0 in
10:15 81.7 °F 58.8 °F 29.9 in NNE 3 mph 7 mph 46% 0 in
10:20 81.7 °F 58.3 °F 29.9 in NE 4.3 mph 8.1 mph 45% 0 in
10:25 82 °F 58.6 °F 29.9 in NNE 5 mph 9 mph 45% 0 in
10:30 82.2 °F 58.8 °F 29.9 in NNE 5 mph 8 mph 45% 0 in
10:35 82.6 °F 59.2 °F 29.9 in NNE 5 mph 7 mph 45% 0 in
10:40 83.1 °F 58.8 °F 29.9 in NE 4.7 mph 6.9 mph 44% 0 in
10:45 83.7 °F 59.4 °F 29.9 in North 4.7 mph 8.5 mph 44% 0 in
10:50 83.8 °F 59.5 °F 29.9 in NNE 4.7 mph 8.1 mph 44% 0 in
10:55 84 °F 59.7 °F 29.9 in North 4.7 mph 8.1 mph 44% 0 in
11:00 84.2 °F 60.1 °F 29.9 in NNE 6 mph 11 mph 44% 0 in
11:05 84.9 °F 59.9 °F 29.9 in NE 5.9 mph 4.7 mph 43% 0 in
11:10 85.3 °F 59.5 °F 29.9 in ENE 4.7 mph 9.2 mph 42% 0 in
11:15 85.5 °F 59.2 °F 29.9 in Este 4.7 mph 9.2 mph 41% 0 in
11:20 85.8 °F 59.4 °F 29.9 in NE 5.4 mph 5.8 mph 41% 0 in
11:25 86.2 °F 58.3 °F 29.9 in ENE 6 mph 9 mph 39% 0 in
11:30 86.4 °F 58.5 °F 29.9 in SSE 4.3 mph 6.9 mph 39% 0 in
11:35 86.5 °F 58.6 °F 29.9 in SSE 4.3 mph 2.4 mph 39% 0 in
11:40 87.1 °F 59.2 °F 29.9 in NE 3.6 mph 4.6 mph 39% 0 in
11:45 87.4 °F 60.3 °F 29.9 in ESE 3.6 mph 4.6 mph 40% 0 in
11:50 87.8 °F 59.7 °F 29.9 in Este 3 mph 9 mph 39% 0 in
11:55 88.2 °F 60.1 °F 29.9 in SE 3 mph 9 mph 39% 0 in
12:00 88.5 °F 61.2 °F 29.9 in Este 5 mph 7 mph 40% 0 in
12:05 88.5 °F 61.2 °F 29.9 in NE 5 mph 7 mph 40% 0 in
12:10 88.5 °F 61.9 °F 29.9 in NE 5 mph 10 mph 41% 0 in
12:15 88.2 °F 61.5 °F 29.9 in North 4 mph 6.9 mph 41% 0 in
12:20 88.2 °F 60.8 °F 29.9 in NNE 6.9 mph 11.5 mph 40% 0 in
12:25 88.2 °F 61.5 °F 29.9 in NNE 7 mph 13 mph 41% 0 in
12:30 88.2 °F 62.2 °F 29.9 in ENE 6.9 mph 12.7 mph 42% 0 in
12:35 88.2 °F 61.5 °F 29.9 in NE 7 mph 12 mph 41% 0 in
12:40 88.3 °F 62.2 °F 29.9 in NE 7 mph 12 mph 42% 0 in
12:45 88.5 °F 62.4 °F 29.9 in NE 7 mph 11 mph 42% 0 in
12:50 88.9 °F 62.8 °F 29.9 in NNE 7 mph 11 mph 42% 0 in
12:55 88.7 °F 64 °F 29.9 in NNE 7 mph 12 mph 44% 0 in
13:00 88.9 °F 64.8 °F 29.9 in NE 7 mph 14 mph 45% 0 in
13:05 89.2 °F 65.8 °F 29.9 in NE 7 mph 15 mph 46% 0 in
13:10 88.3 °F 65.7 °F 29.9 in North 7.6 mph 16.1 mph 47% 0 in
13:15 88.3 °F 66.2 °F 29.9 in NNE 7.6 mph 12.7 mph 48% 0 in
13:20 88.5 °F 65.7 °F 29.9 in NE 9 mph 16 mph 47% 0 in
13:25 88.3 °F 65.7 °F 29.9 in NE 9 mph 18 mph 47% 0 in
13:30 88.2 °F 66 °F 29.9 in NE 10 mph 19 mph 48% 0 in
13:35 88 °F 66.4 °F 29.9 in NE 10 mph 19 mph 49% 0 in
13:40 87.6 °F 66 °F 29.9 in NNE 11.8 mph 17.3 mph 49% 0 in
13:45 87.4 °F 66.6 °F 29.9 in NE 12 mph 19 mph 50% 0 in
13:50 87.6 °F 66.7 °F 29.9 in NE 12 mph 19 mph 50% 0 in
13:55 87.6 °F 66 °F 29.9 in NE 12 mph 17 mph 49% 0 in
14:00 87.6 °F 66.7 °F 29.9 in NE 10 mph 16 mph 50% 0 in
14:05 87.6 °F 66.7 °F 29.9 in ENE 10.2 mph 13.8 mph 50% 0 in
14:10 88.3 °F 66.7 °F 29.9 in ESE 9.2 mph 5.9 mph 49% 0 in
14:15 88.9 °F 66.7 °F 29.9 in NNE 9.2 mph 13.8 mph 48% 0 in
14:20 88.7 °F 67.1 °F 29.9 in NE 8.5 mph 18.4 mph 49% 0 in
14:25 88.2 °F 66.6 °F 29.9 in ENE 8.5 mph 17.3 mph 49% 0 in
14:30 88.2 °F 66 °F 29.9 in ENE 11.8 mph 21.9 mph 48% 0 in
14:35 88.5 °F 66.9 °F 29.9 in NE 12 mph 22 mph 49% 0 in
14:40 89.1 °F 64.9 °F 29.9 in NE 9.2 mph 13.8 mph 45% 0 in
14:45 89.2 °F 65.7 °F 29.9 in NE 9 mph 15 mph 46% 0 in
14:50 89.4 °F 65.3 °F 29.9 in NE 9 mph 15 mph 45% 0 in
14:55 89.6 °F 65.5 °F 29.9 in NE 9.7 mph 13.8 mph 45% 0 in
15:00 89.4 °F 65.3 °F 29.9 in NE 9 mph 14 mph 45% 0 in
15:05 90 °F 64.6 °F 29.9 in Este 8.7 mph 15 mph 43% 0 in
15:10 90 °F 64.6 °F 29.9 in NE 8 mph 15 mph 43% 0 in
15:15 90.7 °F 64.2 °F 29.9 in NE 8 mph 13 mph 42% 0 in
15:20 90.7 °F 63.7 °F 29.9 in NNE 8.1 mph 11.5 mph 41% 0 in
15:25 91 °F 63.3 °F 29.9 in NE 8 mph 13 mph 40% 0 in
15:30 91 °F 64 °F 29.9 in ENE 8.1 mph 15 mph 41% 0 in
15:35 90.9 °F 63.1 °F 29.9 in NE 8 mph 16 mph 40% 0 in
15:40 90.9 °F 62.4 °F 29.9 in NE 10 mph 15 mph 39% 0 in
15:45 91.2 °F 64.2 °F 29.9 in NE 10 mph 13 mph 41% 0 in
15:50 91.6 °F 64.6 °F 29.9 in NNE 7.6 mph 16.1 mph 41% 0 in
15:55 91.4 °F 63 °F 29.9 in NE 8 mph 16 mph 39% 0 in
16:00 91.4 °F 63.7 °F 29.9 in NE 9 mph 16 mph 40% 0 in
16:05 91.8 °F 63.1 °F 29.9 in NE 9 mph 14 mph 39% 0 in
16:10 91.8 °F 63.3 °F 29.9 in Este 7.6 mph 16.1 mph 39% 0 in
16:15 91.8 °F 64.8 °F 29.9 in NE 8 mph 16 mph 41% 0 in
16:20 91.9 °F 64.2 °F 29.9 in NNE 8.7 mph 12.7 mph 40% 0 in
16:25 91.8 °F 64.8 °F 29.9 in NE 9 mph 15 mph 41% 0 in
16:30 91.8 °F 66 °F 29.9 in ENE 8.5 mph 12.7 mph 43% 0 in
16:35 91.8 °F 66.7 °F 29.9 in NE 8 mph 15 mph 44% 0 in
16:40 91.8 °F 66 °F 29.9 in NNE 8.1 mph 10.4 mph 43% 0 in
16:45 91.9 °F 66.9 °F 29.9 in ENE 8 mph 13 mph 44% 0 in
16:50 92.5 °F 67.5 °F 29.9 in Este 7.6 mph 10.7 mph 44% 0 in
16:55 92.1 °F 67.1 °F 29.9 in Este 8 mph 15 mph 44% 0 in
17:00 91.8 °F 66.7 °F 29.9 in Este 8 mph 16 mph 44% 0 in
17:05 91.9 °F 66.9 °F 29.9 in ESE 8 mph 15 mph 44% 0 in
17:10 91.9 °F 66.9 °F 29.9 in ESE 7 mph 14 mph 44% 0 in
17:15 91.6 °F 66.6 °F 29.9 in ESE 7 mph 15 mph 44% 0 in
17:20 91.4 °F 66.4 °F 29.9 in ENE 9.2 mph 11.8 mph 44% 0 in
17:25 91.2 °F 65.7 °F 29.9 in SE 9.2 mph 16.1 mph 43% 0 in
17:30 91 °F 66 °F 29.9 in Este 8.5 mph 11.2 mph 44% 0 in
17:35 91.6 °F 66.6 °F 29.9 in ESE 8 mph 13 mph 44% 0 in
17:40 91.4 °F 65.7 °F 29.9 in ESE 8 mph 17 mph 43% 0 in
17:45 91 °F 66 °F 29.9 in ESE 8 mph 13 mph 44% 0 in
17:50 90.9 °F 65.8 °F 29.9 in ESE 7 mph 13 mph 44% 0 in
17:55 90.9 °F 65.8 °F 29.9 in ESE 7 mph 15 mph 44% 0 in
18:00 90.7 °F 65.8 °F 29.9 in SE 8 mph 14 mph 44% 0 in
18:05 90.7 °F 65.8 °F 29.9 in SE 7.6 mph 10.7 mph 44% 0 in
18:10 90.5 °F 65.7 °F 29.9 in Este 7.4 mph 11.5 mph 44% 0 in
18:15 90.1 °F 65.8 °F 29.9 in ESE 7 mph 15 mph 45% 0 in
18:20 90 °F 65.8 °F 29.9 in ESE 9.2 mph 11.5 mph 45% 0 in
18:25 90 °F 66.4 °F 29.9 in ENE 9.2 mph 8.1 mph 46% 0 in
18:30 89.8 °F 65.7 °F 29.9 in ESE 7.6 mph 11.5 mph 45% 0 in
18:35 89.4 °F 66.6 °F 29.9 in ENE 7.6 mph 4.6 mph 47% 0 in
18:40 89.8 °F 66.2 °F 29.9 in NE 7.4 mph 12.7 mph 46% 0 in
18:45 89.2 °F 66.4 °F 29.9 in ENE 7 mph 16 mph 47% 0 in
18:50 88.9 °F 66.7 °F 29.9 in NNE 8.7 mph 13.8 mph 48% 0 in
18:55 88.9 °F 66.7 °F 29.9 in ENE 9 mph 17 mph 48% 0 in
19:00 88.3 °F 66.2 °F 29.9 in NE 9 mph 17 mph 48% 0 in
19:05 88.2 °F 66.6 °F 29.9 in NE 9 mph 16 mph 49% 0 in
19:10 87.8 °F 66.4 °F 29.9 in ESE 10.2 mph 13.8 mph 49% 0 in
19:15 88 °F 66.4 °F 29.9 in NE 10 mph 16 mph 49% 0 in
19:20 87.6 °F 66 °F 29.9 in NE 9.2 mph 12.7 mph 49% 0 in
19:25 87.4 °F 66.6 °F 29.9 in NE 9 mph 16 mph 50% 0 in
19:30 86.7 °F 68.2 °F 29.9 in NE 10 mph 19 mph 54% 0 in
19:35 85.8 °F 67.8 °F 29.9 in NE 10 mph 16 mph 55% 0 in
19:40 85.5 °F 68.5 °F 29.9 in ENE 10.7 mph 15.2 mph 57% 0 in
19:45 84.9 °F 68.5 °F 29.9 in NE 10 mph 17 mph 58% 0 in
19:50 84.6 °F 68.2 °F 29.9 in NE 10.7 mph 18.4 mph 58% 0 in
19:55 84 °F 68.2 °F 29.9 in NE 10 mph 18 mph 59% 0 in
20:00 83.8 °F 68 °F 29.9 in NE 12 mph 19 mph 59% 0 in
20:05 83.7 °F 68.2 °F 29.9 in NE 12 mph 22 mph 60% 0 in
20:10 83.1 °F 68.4 °F 29.9 in NNE 11.8 mph 20.7 mph 61% 0 in
20:15 82.8 °F 68.4 °F 29.9 in NE 11.8 mph 18.4 mph 62% 0 in
20:20 82 °F 68.7 °F 29.9 in NNE 12.3 mph 18.4 mph 64% 0 in
20:25 81.7 °F 68.7 °F 29.9 in NNE 12.3 mph 13.8 mph 65% 0 in
20:30 81.7 °F 68.7 °F 29.9 in NE 10 mph 15 mph 65% 0 in
20:35 81.3 °F 68.9 °F 29.9 in NE 10 mph 17 mph 66% 0 in
20:40 81.1 °F 68.7 °F 29.9 in NNE 10.7 mph 15 mph 66% 0 in
20:45 81 °F 69.1 °F 29.9 in NE 10 mph 18 mph 67% 0 in
20:50 80.6 °F 69.1 °F 29.9 in NE 12 mph 17 mph 68% 0 in
20:55 80.4 °F 69.3 °F 29.9 in NNE 11.2 mph 16.8 mph 69% 0 in
21:00 80.2 °F 69.1 °F 29.9 in NE 12 mph 20 mph 69% 0 in
21:05 80.2 °F 69.1 °F 29.9 in NE 12 mph 20 mph 69% 0 in
21:10 80.2 °F 69.4 °F 29.9 in NE 12 mph 15 mph 70% 0 in
21:15 80.1 °F 69.4 °F 29.9 in NE 11.2 mph 16.1 mph 70% 0 in
21:20 79.9 °F 69.3 °F 29.9 in NE 10 mph 16 mph 70% 0 in
21:25 79.7 °F 69.4 °F 29.9 in NE 10 mph 21 mph 71% 0 in
21:30 79.5 °F 69.3 °F 29.9 in NNE 11.2 mph 10.4 mph 71% 0 in
21:35 79.5 °F 69.6 °F 29.9 in NE 12 mph 17 mph 72% 0 in
21:40 79.3 °F 69.4 °F 29.9 in NE 9 mph 14 mph 72% 0 in
21:45 79.3 °F 69.4 °F 29.9 in NE 9.2 mph 10.4 mph 72% 0 in
21:50 79.2 °F 69.8 °F 29.9 in NE 8.7 mph 12.7 mph 73% 0 in
21:55 79.2 °F 69.8 °F 29.9 in NE 9 mph 17 mph 73% 0 in
22:00 79.2 °F 69.4 °F 29.9 in NE 9 mph 16 mph 72% 0 in
22:05 79 °F 69.6 °F 29.9 in NE 9 mph 13 mph 73% 0 in
22:10 79 °F 69.3 °F 29.9 in ENE 7.6 mph 13.8 mph 72% 0 in
22:15 78.8 °F 69.1 °F 29.9 in NE 8 mph 15 mph 72% 0 in
22:20 78.8 °F 69.1 °F 29.9 in NE 8 mph 13 mph 72% 0 in
22:25 78.8 °F 69.1 °F 29.9 in NE 8 mph 14 mph 72% 0 in
22:30 78.6 °F 68.7 °F 29.9 in NE 9.2 mph 11.5 mph 72% 0 in
22:35 78.6 °F 69.3 °F 29.9 in NE 9 mph 14 mph 73% 0 in
22:40 78.4 °F 69.1 °F 29.9 in NE 9 mph 14 mph 73% 0 in
22:45 78.3 °F 69.3 °F 29.9 in NE 9 mph 13 mph 74% 0 in
22:52 78.3 °F 69.3 °F 29.9 in NE 7.6 mph 13 mph 74% 0 in
22:58 78.1 °F 69.4 °F 29.9 in NE 7.6 mph 17.3 mph 75% 0 in
23:04 77.9 °F 69.3 °F 29.9 in NE 9.2 mph 11.5 mph 75% 0 in
23:10 77.7 °F 69.3 °F 29.9 in NNE 8.5 mph 11.5 mph 75% 0 in
23:15 77.7 °F 69.1 °F 29.9 in NE 8 mph 13 mph 75% 0 in
23:20 77.5 °F 69.4 °F 29.9 in NE 8.5 mph 11.4 mph 76% 0 in
23:25 77.5 °F 69.4 °F 29.9 in NE 8.5 mph 12.7 mph 76% 0 in
23:30 77.4 °F 69.6 °F 29.9 in Este 8.5 mph 11.5 mph 77% 0 in
23:35 77.4 °F 69.6 °F 29.9 in NE 8 mph 14 mph 77% 0 in
23:40 77.2 °F 69.4 °F 29.9 in ENE 8.7 mph 12.7 mph 77% 0 in
23:45 77.2 °F 69.4 °F 29.9 in NE 9 mph 12 mph 77% 0 in
23:50 77 °F 69.6 °F 29.9 in NE 8 mph 12 mph 78% 0 in
23:55 76.8 °F 69.4 °F 29.9 in NE 8 mph 13 mph 78% 0 in
Murcia-Puente Tocinos, España
Compliments of Weather Underground - 2.5 mb

La estación de MeteoMurcia.com, publica sus datos en los siguientes proyectos:

Weather Underground PWS IMURCIAP2 Meteoclimatic www.awekas.at

W3Counter
Web Analytics